Time;durP1;ratioP1;P1;durP2;ratioP2;P2;SDS_P1;SDS_P2;PMS_P1;PMS_P2;Temp;Humidity;BMP_temperature;BMP_pressure;BME280_temperature;BME280_humidity;BME280_pressure;Samples;Min_cycle;Max_cycle;Signal;HPM_P1;HPM_P2
2023/11/18 00:00:11;;;;;;;18.38;15.50;;;15.70;69.30;;;;;;338852;29;1084;-59
2023/11/18 00:00:23;;;;;;;19.13;16.10;;;15.70;69.30;;;;;;338958;29;1072;-62
2023/11/18 00:00:34;;;;;;;18.20;15.65;;;15.70;69.20;;;;;;338982;29;1963;-59
2023/11/18 00:00:45;;;;;;;18.15;15.32;;;15.70;69.20;;;;;;338915;29;910;-58
2023/11/18 00:00:56;;;;;;;19.40;15.73;;;15.70;69.20;;;;;;338945;29;1021;-60
2023/11/18 00:01:08;;;;;;;19.53;16.10;;;15.70;69.20;;;;;;338912;29;1733;-59
2023/11/18 00:01:19;;;;;;;18.83;15.93;;;15.70;69.20;;;;;;338887;29;1032;-59
2023/11/18 00:01:33;;;;;;;17.95;15.40;;;15.70;69.20;;;;;;338987;29;973;-58
2023/11/18 00:01:44;;;;;;;18.77;15.45;;;15.70;69.20;;;;;;338942;29;1036;-59
2023/11/18 00:01:55;;;;;;;18.40;15.68;;;15.70;69.20;;;;;;338933;29;914;-59
2023/11/18 00:02:05;;;;;;;18.10;15.82;;;15.70;69.10;;;;;;338975;29;830;-58
2023/11/18 00:02:16;;;;;;;17.93;15.80;;;15.70;69.20;;;;;;338982;29;1004;-60
2023/11/18 00:02:28;;;;;;;17.90;15.57;;;15.70;69.20;;;;;;338897;29;1043;-59
2023/11/18 00:02:39;;;;;;;18.05;15.60;;;15.70;69.20;;;;;;338918;29;1304;-60
2023/11/18 00:02:50;;;;;;;18.33;15.88;;;15.70;69.20;;;;;;338995;29;1143;-59
2023/11/18 00:03:01;;;;;;;18.55;16.30;;;15.70;69.10;;;;;;338843;29;1087;-59
2023/11/18 00:03:11;;;;;;;18.73;16.25;;;15.70;69.10;;;;;;338973;29;890;-58
2023/11/18 00:03:22;;;;;;;19.43;16.50;;;15.70;69.10;;;;;;339004;29;878;-57
2023/11/18 00:03:33;;;;;;;19.17;16.45;;;15.70;69.10;;;;;;338882;29;1048;-60
2023/11/18 00:03:43;;;;;;;18.95;16.88;;;15.70;69.10;;;;;;338912;29;971;-58
2023/11/18 00:03:55;;;;;;;19.38;17.20;;;15.70;69.10;;;;;;338929;29;977;-60
2023/11/18 00:04:09;;;;;;;19.77;17.25;;;15.70;69.10;;;;;;338910;29;981;-60
2023/11/18 00:04:20;;;;;;;19.75;16.95;;;15.80;69.10;;;;;;338938;29;1017;-60
2023/11/18 00:04:31;;;;;;;19.27;16.73;;;15.70;69.10;;;;;;338894;29;918;-59
2023/11/18 00:04:41;;;;;;;19.15;16.73;;;15.80;69.10;;;;;;338953;29;1594;-59
2023/11/18 00:04:52;;;;;;;18.85;16.83;;;15.80;69.00;;;;;;338931;29;973;-59
2023/11/18 00:05:04;;;;;;;18.95;16.70;;;15.70;69.00;;;;;;338902;29;1028;-61
2023/11/18 00:05:15;;;;;;;19.15;16.65;;;15.80;69.10;;;;;;338934;29;1012;-59
2023/11/18 00:05:26;;;;;;;20.30;16.50;;;15.70;69.00;;;;;;338826;29;1311;-60
2023/11/18 00:05:37;;;;;;;20.38;16.92;;;15.80;69.00;;;;;;338942;29;981;-58
2023/11/18 00:05:47;;;;;;;20.03;16.73;;;15.80;69.00;;;;;;338892;29;1028;-58
2023/11/18 00:05:59;;;;;;;19.30;17.15;;;15.70;69.00;;;;;;338980;29;997;-58
2023/11/18 00:06:10;;;;;;;19.20;16.73;;;15.80;69.00;;;;;;338890;29;1080;-58
2023/11/18 00:06:21;;;;;;;19.95;17.30;;;15.80;69.00;;;;;;338986;29;1151;-59
2023/11/18 00:06:32;;;;;;;20.90;18.45;;;15.70;69.00;;;;;;338936;29;941;-59
2023/11/18 00:06:46;;;;;;;21.90;19.52;;;15.80;69.00;;;;;;338863;29;1112;-60
2023/11/18 00:06:59;;;;;;;21.67;19.38;;;15.80;69.00;;;;;;338919;29;1195;-57
2023/11/18 00:07:10;;;;;;;20.65;18.45;;;15.80;69.00;;;;;;338844;29;1030;-58
2023/11/18 00:07:20;;;;;;;19.95;17.85;;;15.70;68.90;;;;;;338951;29;1840;-59
2023/11/18 00:07:32;;;;;;;19.43;17.30;;;15.80;68.90;;;;;;338920;29;925;-59
2023/11/18 00:07:43;;;;;;;19.67;17.08;;;15.80;68.90;;;;;;338963;29;846;-59
2023/11/18 00:07:55;;;;;;;20.60;16.73;;;15.80;68.90;;;;;;338874;29;1064;-59
2023/11/18 00:08:06;;;;;;;20.48;16.65;;;15.80;68.90;;;;;;338914;29;2511;-61
2023/11/18 00:08:17;;;;;;;21.75;16.92;;;15.80;68.90;;;;;;338905;29;1008;-59
2023/11/18 00:08:27;;;;;;;21.88;17.08;;;15.80;68.90;;;;;;338995;29;913;-59
2023/11/18 00:08:39;;;;;;;23.35;17.05;;;15.80;68.90;;;;;;338811;29;973;-60
2023/11/18 00:08:49;;;;;;;21.50;16.88;;;15.80;68.90;;;;;;338925;29;1175;-58
2023/11/18 00:09:00;;;;;;;20.98;16.55;;;15.80;68.90;;;;;;338834;29;913;-59
2023/11/18 00:09:14;;;;;;;19.93;16.30;;;15.70;68.90;;;;;;339008;29;845;-59
2023/11/18 00:09:25;;;;;;;20.88;16.45;;;15.70;68.90;;;;;;338919;29;992;-60
2023/11/18 00:09:36;;;;;;;21.50;16.63;;;15.70;68.90;;;;;;339001;29;913;-58
2023/11/18 00:09:47;;;;;;;20.42;16.23;;;15.70;68.90;;;;;;338906;29;857;-59
2023/11/18 00:09:58;;;;;;;20.42;16.00;;;15.70;68.90;;;;;;338987;29;894;-60
2023/11/18 00:10:09;;;;;;;18.87;16.17;;;15.70;68.90;;;;;;338871;29;1031;-59
2023/11/18 00:10:20;;;;;;;18.38;16.23;;;15.70;68.90;;;;;;338947;29;982;-60
2023/11/18 00:10:31;;;;;;;18.23;16.33;;;15.70;68.90;;;;;;338863;29;1072;-59
2023/11/18 00:10:41;;;;;;;17.73;15.80;;;15.70;68.90;;;;;;338831;29;1406;-59
2023/11/18 00:10:53;;;;;;;18.30;15.63;;;15.70;68.90;;;;;;338882;29;981;-60
2023/11/18 00:11:04;;;;;;;18.73;16.10;;;15.70;68.90;;;;;;338966;29;922;-59
2023/11/18 00:11:15;;;;;;;18.55;16.45;;;15.70;69.00;;;;;;338801;29;1909;-59
2023/11/18 00:11:27;;;;;;;19.33;16.65;;;15.70;69.00;;;;;;338931;29;1272;-59
2023/11/18 00:11:38;;;;;;;19.60;16.17;;;15.70;69.00;;;;;;338829;29;2515;-60
2023/11/18 00:11:49;;;;;;;19.27;16.15;;;15.70;69.10;;;;;;338912;29;1862;-59
2023/11/18 00:11:59;;;;;;;18.38;16.25;;;15.70;69.00;;;;;;338866;29;993;-59
2023/11/18 00:12:10;;;;;;;18.70;16.23;;;15.70;69.00;;;;;;339008;29;965;-58
2023/11/18 00:12:24;;;;;;;18.85;16.23;;;15.70;69.10;;;;;;338865;29;1033;-59
2023/11/18 00:12:35;;;;;;;18.85;15.60;;;15.70;69.10;;;;;;338947;29;1411;-60
2023/11/18 00:12:46;;;;;;;18.67;15.50;;;15.70;69.10;;;;;;338824;29;1172;-60
2023/11/18 00:12:57;;;;;;;19.95;15.60;;;15.70;69.10;;;;;;338933;29;1792;-59
2023/11/18 00:13:08;;;;;;;20.00;15.67;;;15.70;69.10;;;;;;338858;29;1129;-59
2023/11/18 00:13:19;;;;;;;18.83;15.13;;;15.70;69.20;;;;;;338983;29;934;-58
2023/11/18 00:13:30;;;;;;;20.05;15.50;;;15.70;69.20;;;;;;338897;29;1090;-58
2023/11/18 00:13:44;;;;;;;20.00;15.93;;;15.70;69.20;;;;;;338928;29;1017;-59
2023/11/18 00:13:55;;;;;;;19.24;15.88;;;15.70;69.10;;;;;;338817;29;1219;-59
2023/11/18 00:14:06;;;;;;;19.60;15.83;;;15.70;69.20;;;;;;338946;29;827;-58
2023/11/18 00:14:17;;;;;;;19.73;16.42;;;15.70;69.20;;;;;;338969;29;1035;-59
2023/11/18 00:14:28;;;;;;;20.20;17.00;;;15.70;69.10;;;;;;338900;29;1191;-57
2023/11/18 00:14:40;;;;;;;19.30;17.08;;;15.70;69.10;;;;;;338893;29;1430;-60
2023/11/18 00:14:51;;;;;;;19.27;16.95;;;15.70;69.10;;;;;;338955;29;976;-59
2023/11/18 00:15:03;;;;;;;18.77;16.60;;;15.70;69.00;;;;;;338956;29;1283;-59
2023/11/18 00:15:14;;;;;;;18.77;16.52;;;15.70;69.00;;;;;;338893;29;1104;-59
2023/11/18 00:15:25;;;;;;;18.58;16.50;;;15.70;69.00;;;;;;338853;29;1423;-58
2023/11/18 00:15:36;;;;;;;18.48;16.45;;;15.70;69.00;;;;;;338923;29;985;-58
2023/11/18 00:15:47;;;;;;;19.02;16.42;;;15.70;69.10;;;;;;338968;29;1021;-59
2023/11/18 00:15:57;;;;;;;20.73;16.67;;;15.70;69.10;;;;;;338926;29;1105;-58
2023/11/18 00:16:12;;;;;;;20.58;16.40;;;15.70;69.10;;;;;;338899;29;999;-58
2023/11/18 00:16:22;;;;;;;19.88;16.13;;;15.70;69.10;;;;;;338956;29;909;-60
2023/11/18 00:16:34;;;;;;;19.10;16.40;;;15.70;69.10;;;;;;338908;29;969;-58
2023/11/18 00:16:45;;;;;;;19.48;16.45;;;15.70;69.10;;;;;;338862;29;1101;-58
2023/11/18 00:16:55;;;;;;;19.92;16.65;;;15.70;69.10;;;;;;338853;29;909;-58
2023/11/18 00:17:06;;;;;;;19.07;16.67;;;15.70;69.10;;;;;;338963;29;1034;-58
2023/11/18 00:17:17;;;;;;;18.30;16.30;;;15.70;69.10;;;;;;338862;29;1096;-59
2023/11/18 00:17:27;;;;;;;18.08;16.17;;;15.70;69.10;;;;;;338919;29;1071;-61
2023/11/18 00:17:38;;;;;;;20.35;16.10;;;15.70;69.10;;;;;;338866;29;1364;-59
2023/11/18 00:17:49;;;;;;;21.60;16.10;;;15.70;69.10;;;;;;338970;29;1009;-59
2023/11/18 00:18:00;;;;;;;22.70;16.40;;;15.70;69.10;;;;;;338902;29;1105;-59
2023/11/18 00:18:11;;;;;;;20.48;16.33;;;15.70;69.10;;;;;;338967;29;916;-58
2023/11/18 00:18:22;;;;;;;18.60;16.15;;;15.70;69.20;;;;;;338833;29;1128;-58
2023/11/18 00:18:34;;;;;;;19.80;16.13;;;15.70;69.20;;;;;;338950;29;846;-59
2023/11/18 00:18:44;;;;;;;20.33;16.38;;;15.70;69.20;;;;;;338978;29;863;-59
2023/11/18 00:18:55;;;;;;;20.70;16.50;;;15.70;69.20;;;;;;338912;29;882;-59
2023/11/18 00:19:06;;;;;;;20.63;16.45;;;15.70;69.10;;;;;;338893;29;1014;-59
2023/11/18 00:19:17;;;;;;;20.33;16.73;;;15.70;69.10;;;;;;338903;29;1128;-60
2023/11/18 00:19:28;;;;;;;20.33;16.98;;;15.70;69.10;;;;;;338953;29;969;-58
2023/11/18 00:19:38;;;;;;;19.60;17.00;;;15.70;69.10;;;;;;338910;29;1081;-58
2023/11/18 00:19:49;;;;;;;20.73;17.05;;;15.70;69.10;;;;;;338880;29;921;-59
2023/11/18 00:20:00;;;;;;;20.05;17.35;;;15.70;69.10;;;;;;338925;29;1017;-59
2023/11/18 00:20:13;;;;;;;20.00;17.35;;;15.70;69.10;;;;;;338875;29;1396;-60
2023/11/18 00:20:24;;;;;;;19.55;17.20;;;15.70;69.10;;;;;;338955;29;887;-59
2023/11/18 00:20:35;;;;;;;19.52;17.38;;;15.70;69.10;;;;;;338831;29;1105;-58
2023/11/18 00:20:46;;;;;;;19.38;16.98;;;15.70;69.10;;;;;;338919;29;1031;-59
2023/11/18 00:20:57;;;;;;;19.35;16.60;;;15.70;69.10;;;;;;338957;29;811;-60
2023/11/18 00:21:08;;;;;;;21.02;16.88;;;15.70;69.10;;;;;;338927;29;1179;-58
2023/11/18 00:21:19;;;;;;;21.20;16.92;;;15.70;69.10;;;;;;338811;29;1223;-60
2023/11/18 00:21:29;;;;;;;21.60;17.23;;;15.60;69.00;;;;;;338991;29;933;-59
2023/11/18 00:21:40;;;;;;;19.92;16.85;;;15.70;69.10;;;;;;338960;29;996;-59
2023/11/18 00:21:51;;;;;;;20.17;17.20;;;15.70;69.10;;;;;;338933;29;1144;-59
2023/11/18 00:22:02;;;;;;;21.02;16.98;;;15.70;69.10;;;;;;338864;29;1105;-59
2023/11/18 00:22:13;;;;;;;21.65;17.08;;;15.70;69.00;;;;;;338951;29;878;-59
2023/11/18 00:22:23;;;;;;;23.65;16.83;;;15.70;69.00;;;;;;338964;29;878;-58
2023/11/18 00:22:37;;;;;;;23.10;17.13;;;15.70;69.00;;;;;;338936;29;803;-60
2023/11/18 00:22:48;;;;;;;20.95;17.10;;;15.70;69.00;;;;;;338821;29;1494;-60
2023/11/18 00:22:59;;;;;;;18.97;16.80;;;15.70;69.00;;;;;;338921;29;1032;-58
2023/11/18 00:23:09;;;;;;;19.10;16.83;;;15.70;69.00;;;;;;338954;29;1009;-59
2023/11/18 00:23:20;;;;;;;18.95;16.77;;;15.70;69.10;;;;;;338941;29;858;-59
2023/11/18 00:23:31;;;;;;;20.15;16.83;;;15.70;69.10;;;;;;338862;29;1019;-60
2023/11/18 00:23:41;;;;;;;19.90;16.90;;;15.70;69.10;;;;;;338978;29;942;-60
2023/11/18 00:23:53;;;;;;;20.00;16.80;;;15.70;69.10;;;;;;338885;29;1053;-59
2023/11/18 00:24:05;;;;;;;20.55;16.55;;;15.70;69.10;;;;;;338941;29;1025;-60
2023/11/18 00:24:15;;;;;;;20.70;16.02;;;15.70;69.10;;;;;;338889;29;1903;-60
2023/11/18 00:24:26;;;;;;;20.73;15.82;;;15.70;69.10;;;;;;338890;29;1085;-57
2023/11/18 00:24:37;;;;;;;21.15;16.38;;;15.70;69.10;;;;;;338979;29;926;-60
2023/11/18 00:24:48;;;;;;;20.55;16.52;;;15.70;69.00;;;;;;338951;29;981;-59
2023/11/18 00:24:59;;;;;;;19.52;16.65;;;15.70;69.00;;;;;;338835;29;1768;-60
2023/11/18 00:25:10;;;;;;;18.90;16.15;;;15.70;69.00;;;;;;338877;29;1152;-58
2023/11/18 00:25:21;;;;;;;19.23;15.82;;;15.70;69.00;;;;;;338814;29;1133;-59
2023/11/18 00:25:33;;;;;;;19.65;16.10;;;15.70;69.00;;;;;;338814;29;1048;-59
2023/11/18 00:25:45;;;;;;;21.16;16.68;;;15.70;69.00;;;;;;338667;29;1479;-59
2023/11/18 00:25:55;;;;;;;20.48;16.65;;;15.70;68.90;;;;;;338817;29;989;-58
2023/11/18 00:26:06;;;;;;;20.30;16.50;;;15.70;68.90;;;;;;338828;29;1156;-59
2023/11/18 00:26:17;;;;;;;19.67;16.30;;;15.70;68.90;;;;;;338861;29;1052;-59
2023/11/18 00:26:29;;;;;;;19.47;16.30;;;15.70;68.90;;;;;;338774;29;961;-59
2023/11/18 00:26:39;;;;;;;19.35;16.25;;;15.70;68.90;;;;;;338799;29;1156;-60
2023/11/18 00:26:50;;;;;;;18.90;15.80;;;15.70;68.90;;;;;;338867;29;836;-59
2023/11/18 00:27:05;;;;;;;19.27;16.33;;;15.70;69.00;;;;;;338811;29;1124;-59
2023/11/18 00:27:16;;;;;;;20.10;16.83;;;15.70;69.00;;;;;;338884;29;1009;-59
2023/11/18 00:27:27;;;;;;;20.20;16.67;;;15.70;69.00;;;;;;338968;29;876;-59
2023/11/18 00:27:37;;;;;;;20.60;16.43;;;15.70;69.10;;;;;;338979;29;836;-59
2023/11/18 00:27:48;;;;;;;19.60;16.38;;;15.70;69.10;;;;;;338877;29;1281;-58
2023/11/18 00:27:59;;;;;;;20.08;16.42;;;15.70;69.10;;;;;;338867;29;937;-60
2023/11/18 00:28:10;;;;;;;22.38;16.75;;;15.70;69.10;;;;;;338921;29;973;-60
2023/11/18 00:28:20;;;;;;;23.63;16.87;;;15.70;69.10;;;;;;338924;29;1777;-59
2023/11/18 00:28:32;;;;;;;23.98;17.08;;;15.70;69.00;;;;;;338949;29;1807;-59
2023/11/18 00:28:43;;;;;;;23.23;17.27;;;15.70;69.00;;;;;;338868;29;992;-59
2023/11/18 00:28:54;;;;;;;23.33;17.25;;;15.70;69.00;;;;;;338801;29;1429;-60
2023/11/18 00:29:04;;;;;;;22.47;17.33;;;15.70;68.90;;;;;;338864;29;1013;-59
2023/11/18 00:29:15;;;;;;;21.87;17.23;;;15.70;68.90;;;;;;338818;29;1088;-59
2023/11/18 00:29:26;;;;;;;20.67;17.42;;;15.70;68.90;;;;;;338776;29;1048;-59
2023/11/18 00:29:37;;;;;;;21.27;17.52;;;15.70;68.90;;;;;;338824;29;973;-59
2023/11/18 00:29:48;;;;;;;20.85;16.85;;;15.70;68.90;;;;;;338803;29;997;-58
2023/11/18 00:29:59;;;;;;;21.88;16.63;;;15.60;68.90;;;;;;338731;29;1151;-59
2023/11/18 00:30:12;;;;;;;21.75;16.17;;;15.60;69.00;;;;;;338823;29;1213;-59
2023/11/18 00:30:23;;;;;;;21.10;16.35;;;15.60;69.00;;;;;;338830;29;1120;-59
2023/11/18 00:30:34;;;;;;;19.42;16.42;;;15.70;69.00;;;;;;338809;29;894;-59
2023/11/18 00:30:45;;;;;;;19.25;17.20;;;15.60;69.10;;;;;;338822;29;1025;-58
2023/11/18 00:30:55;;;;;;;20.02;17.40;;;15.70;69.00;;;;;;338994;29;803;-59
2023/11/18 00:31:06;;;;;;;19.50;17.15;;;15.60;69.00;;;;;;338802;29;1027;-58
2023/11/18 00:31:17;;;;;;;20.07;16.93;;;15.60;69.00;;;;;;338918;29;846;-59
2023/11/18 00:31:29;;;;;;;19.48;16.48;;;15.60;69.00;;;;;;338899;29;1005;-59
2023/11/18 00:31:40;;;;;;;20.13;16.60;;;15.70;68.90;;;;;;338808;29;962;-59
2023/11/18 00:31:50;;;;;;;20.00;16.90;;;15.60;68.90;;;;;;338904;29;1091;-60
2023/11/18 00:32:02;;;;;;;19.63;17.42;;;15.60;68.90;;;;;;338970;29;969;-59
2023/11/18 00:32:13;;;;;;;19.52;17.33;;;15.60;68.90;;;;;;338819;29;1067;-58
2023/11/18 00:32:24;;;;;;;19.42;17.05;;;15.60;68.90;;;;;;338940;29;1020;-59
2023/11/18 00:32:35;;;;;;;19.73;16.92;;;15.70;68.90;;;;;;338898;29;1123;-60
2023/11/18 00:32:46;;;;;;;20.05;16.65;;;15.60;68.90;;;;;;338801;29;1337;-58
2023/11/18 00:32:56;;;;;;;20.30;16.83;;;15.70;68.90;;;;;;338946;29;1075;-59
2023/11/18 00:33:07;;;;;;;19.80;16.92;;;15.70;68.80;;;;;;338967;29;1092;-59
2023/11/18 00:33:18;;;;;;;20.23;17.60;;;15.60;68.80;;;;;;338880;29;934;-59
2023/11/18 00:33:29;;;;;;;21.35;17.85;;;15.60;68.80;;;;;;338909;29;882;-58
2023/11/18 00:33:40;;;;;;;22.20;17.57;;;15.60;68.80;;;;;;338899;29;874;-58
2023/11/18 00:33:50;;;;;;;21.38;16.88;;;15.60;68.80;;;;;;338834;29;1522;-59
2023/11/18 00:34:01;;;;;;;22.05;16.60;;;15.60;68.80;;;;;;338882;29;1021;-60
2023/11/18 00:34:12;;;;;;;22.92;17.02;;;15.60;68.80;;;;;;338854;29;1113;-58
2023/11/18 00:34:23;;;;;;;22.88;16.95;;;15.60;68.80;;;;;;338885;29;896;-59
2023/11/18 00:34:34;;;;;;;20.17;16.65;;;15.60;68.80;;;;;;338866;29;1117;-58
2023/11/18 00:34:45;;;;;;;19.42;16.23;;;15.60;68.80;;;;;;338982;29;861;-59
2023/11/18 00:34:55;;;;;;;19.92;16.25;;;15.60;68.80;;;;;;338948;29;866;-58
2023/11/18 00:35:07;;;;;;;19.13;16.05;;;15.60;68.80;;;;;;338925;29;1090;-59
2023/11/18 00:35:17;;;;;;;18.77;16.08;;;15.60;68.80;;;;;;338867;29;1056;-59
2023/11/18 00:35:31;;;;;;;19.07;16.03;;;15.60;68.80;;;;;;338860;29;1160;-59
2023/11/18 00:35:43;;;;;;;19.40;16.23;;;15.60;68.80;;;;;;338894;29;1128;-59
2023/11/18 00:35:54;;;;;;;19.00;16.08;;;15.60;68.80;;;;;;338827;29;1092;-58
2023/11/18 00:36:06;;;;;;;19.77;16.13;;;15.60;68.80;;;;;;338940;29;1085;-59
2023/11/18 00:36:17;;;;;;;18.90;15.90;;;15.60;68.80;;;;;;338908;29;1096;-59
2023/11/18 00:36:28;;;;;;;17.90;15.40;;;15.60;68.80;;;;;;338862;29;1140;-59
2023/11/18 00:36:39;;;;;;;17.42;15.07;;;15.60;68.80;;;;;;338899;29;1079;-59
2023/11/18 00:36:49;;;;;;;18.03;15.20;;;15.60;68.80;;;;;;338915;29;944;-60
2023/11/18 00:37:00;;;;;;;19.17;15.75;;;15.60;68.80;;;;;;338909;29;961;-58
2023/11/18 00:37:11;;;;;;;21.42;16.23;;;15.60;68.80;;;;;;338834;29;1013;-58
2023/11/18 00:37:21;;;;;;;21.83;16.03;;;15.60;68.80;;;;;;338855;29;1085;-59
2023/11/18 00:37:33;;;;;;;20.60;15.90;;;15.60;68.80;;;;;;338933;29;878;-58
2023/11/18 00:37:43;;;;;;;19.35;16.02;;;15.60;68.80;;;;;;338942;29;1029;-58
2023/11/18 00:37:54;;;;;;;19.55;16.20;;;15.60;68.80;;;;;;338881;29;929;-58
2023/11/18 00:38:05;;;;;;;19.85;16.02;;;15.60;68.80;;;;;;338977;29;943;-59
2023/11/18 00:38:16;;;;;;;20.20;16.08;;;15.60;68.80;;;;;;338875;29;1616;-59
2023/11/18 00:38:27;;;;;;;20.98;15.82;;;15.50;68.80;;;;;;338934;29;961;-59
2023/11/18 00:38:37;;;;;;;21.25;16.17;;;15.60;68.80;;;;;;338897;29;893;-59
2023/11/18 00:38:49;;;;;;;20.77;16.00;;;15.60;68.80;;;;;;338949;29;815;-58
2023/11/18 00:38:59;;;;;;;19.45;16.27;;;15.60;68.80;;;;;;338896;29;973;-58
2023/11/18 00:39:10;;;;;;;19.80;16.27;;;15.60;68.90;;;;;;338959;29;1907;-58
2023/11/18 00:39:21;;;;;;;19.33;16.00;;;15.60;68.90;;;;;;338904;29;1333;-59
2023/11/18 00:39:31;;;;;;;18.90;15.63;;;15.60;68.80;;;;;;338899;29;1344;-60
2023/11/18 00:39:42;;;;;;;18.38;15.48;;;15.60;68.90;;;;;;338905;29;846;-59
2023/11/18 00:39:53;;;;;;;18.57;15.37;;;15.60;68.90;;;;;;338897;29;1025;-59
2023/11/18 00:40:04;;;;;;;19.25;15.68;;;15.50;68.90;;;;;;338832;29;985;-60
2023/11/18 00:40:17;;;;;;;19.33;15.75;;;15.60;68.90;;;;;;338900;29;1036;-60
2023/11/18 00:40:29;;;;;;;18.30;15.93;;;15.50;68.80;;;;;;338971;29;854;-58
2023/11/18 00:40:40;;;;;;;18.17;15.75;;;15.60;68.80;;;;;;338870;29;910;-58
2023/11/18 00:40:50;;;;;;;19.57;15.43;;;15.60;68.80;;;;;;338960;29;839;-59
2023/11/18 00:41:01;;;;;;;18.88;15.00;;;15.50;68.80;;;;;;338903;29;1830;-58
2023/11/18 00:41:12;;;;;;;18.58;14.95;;;15.60;68.80;;;;;;338961;29;966;-58
2023/11/18 00:41:23;;;;;;;19.05;15.70;;;15.60;68.80;;;;;;338817;29;1060;-59
2023/11/18 00:41:33;;;;;;;19.20;16.07;;;15.50;68.80;;;;;;338971;29;1781;-59
2023/11/18 00:41:44;;;;;;;18.85;16.10;;;15.60;68.80;;;;;;338924;29;924;-59
2023/11/18 00:41:58;;;;;;;19.45;15.85;;;15.60;68.70;;;;;;338920;29;966;-58
2023/11/18 00:42:09;;;;;;;20.80;16.25;;;15.60;68.70;;;;;;338845;29;1048;-60
2023/11/18 00:42:20;;;;;;;20.48;16.60;;;15.60;68.70;;;;;;338913;29;1100;-60
2023/11/18 00:42:30;;;;;;;19.98;16.38;;;15.60;68.60;;;;;;338854;29;1101;-59
2023/11/18 00:42:41;;;;;;;18.80;15.87;;;15.60;68.70;;;;;;338899;29;958;-58
2023/11/18 00:42:52;;;;;;;18.00;15.95;;;15.60;68.70;;;;;;338827;29;1136;-58
2023/11/18 00:43:03;;;;;;;18.17;16.10;;;15.60;68.70;;;;;;338950;29;930;-59
2023/11/18 00:43:14;;;;;;;18.45;16.40;;;15.60;68.70;;;;;;338850;29;1112;-59
2023/11/18 00:43:24;;;;;;;18.33;16.42;;;15.60;68.80;;;;;;338934;29;1553;-58
2023/11/18 00:43:35;;;;;;;18.10;16.20;;;15.60;68.80;;;;;;338810;29;1021;-58
2023/11/18 00:43:46;;;;;;;18.30;16.30;;;15.50;68.80;;;;;;338937;29;925;-58
2023/11/18 00:43:57;;;;;;;19.17;16.60;;;15.50;68.80;;;;;;338870;29;1404;-59
2023/11/18 00:44:08;;;;;;;19.67;16.85;;;15.50;68.80;;;;;;338905;29;1109;-59
2023/11/18 00:44:19;;;;;;;19.75;16.95;;;15.50;68.80;;;;;;338666;29;1266;-59
2023/11/18 00:44:29;;;;;;;19.30;16.50;;;15.60;68.80;;;;;;338933;29;966;-59
2023/11/18 00:44:41;;;;;;;20.13;16.77;;;15.60;68.90;;;;;;338912;29;1163;-59
2023/11/18 00:44:51;;;;;;;20.67;17.08;;;15.60;68.90;;;;;;338938;29;850;-58
2023/11/18 00:45:04;;;;;;;19.48;16.88;;;15.50;68.90;;;;;;338812;29;1037;-59
2023/11/18 00:45:14;;;;;;;19.25;16.60;;;15.50;68.90;;;;;;338872;29;1203;-58
2023/11/18 00:45:25;;;;;;;19.27;16.63;;;15.50;68.90;;;;;;338929;29;997;-58
2023/11/18 00:45:36;;;;;;;19.63;16.80;;;15.50;68.90;;;;;;338895;29;1897;-58
2023/11/18 00:45:47;;;;;;;20.53;16.83;;;15.50;68.80;;;;;;338814;29;959;-58
2023/11/18 00:45:59;;;;;;;21.65;16.45;;;15.50;68.80;;;;;;338892;29;1104;-59
2023/11/18 00:46:09;;;;;;;21.58;16.42;;;15.50;68.80;;;;;;338905;29;1052;-58
2023/11/18 00:46:22;;;;;;;20.85;16.55;;;15.50;68.80;;;;;;338930;29;1017;-59
2023/11/18 00:46:35;;;;;;;19.96;16.78;;;15.50;68.80;;;;;;338857;29;878;-60
2023/11/18 00:46:46;;;;;;;20.27;16.98;;;15.50;68.80;;;;;;338932;29;1021;-58
2023/11/18 00:46:57;;;;;;;19.33;16.50;;;15.50;68.80;;;;;;338942;29;1765;-58
2023/11/18 00:47:08;;;;;;;20.42;16.45;;;15.50;68.80;;;;;;338918;29;1040;-58
2023/11/18 00:47:19;;;;;;;20.60;16.27;;;15.50;68.80;;;;;;338721;29;1215;-58
2023/11/18 00:47:30;;;;;;;20.83;16.70;;;15.50;68.80;;;;;;338926;29;846;-59
2023/11/18 00:47:41;;;;;;;19.67;16.30;;;15.50;68.80;;;;;;338930;29;955;-58
2023/11/18 00:47:51;;;;;;;19.92;15.98;;;15.50;68.80;;;;;;338884;29;1116;-58
2023/11/18 00:48:04;;;;;;;19.77;15.80;;;15.50;68.80;;;;;;338797;29;1306;-58
2023/11/18 00:48:15;;;;;;;19.23;15.95;;;15.50;68.80;;;;;;338904;29;1020;-59
2023/11/18 00:48:26;;;;;;;19.37;15.63;;;15.50;68.80;;;;;;338877;29;972;-59
2023/11/18 00:48:37;;;;;;;19.80;15.73;;;15.50;68.90;;;;;;338948;29;1020;-59
2023/11/18 00:48:47;;;;;;;20.27;15.93;;;15.50;68.90;;;;;;338864;29;1169;-58
2023/11/18 00:48:58;;;;;;;19.48;15.98;;;15.50;68.90;;;;;;338924;29;1028;-59
2023/11/18 00:49:11;;;;;;;18.30;15.55;;;15.60;68.90;;;;;;338930;29;866;-58
2023/11/18 00:49:22;;;;;;;18.38;15.57;;;15.50;68.90;;;;;;338914;29;989;-59
2023/11/18 00:49:33;;;;;;;19.40;15.77;;;15.50;68.80;;;;;;338853;29;1755;-59
2023/11/18 00:49:44;;;;;;;19.70;16.15;;;15.50;68.80;;;;;;338876;29;1167;-58
2023/11/18 00:49:55;;;;;;;18.23;15.95;;;15.50;68.80;;;;;;338915;29;989;-59
2023/11/18 00:50:08;;;;;;;18.17;15.73;;;15.50;68.80;;;;;;338847;29;988;-59
2023/11/18 00:50:18;;;;;;;18.02;15.50;;;15.50;68.70;;;;;;338892;29;932;-57
2023/11/18 00:50:29;;;;;;;20.30;16.20;;;15.50;68.70;;;;;;338910;29;1059;-59
2023/11/18 00:50:40;;;;;;;19.90;16.70;;;15.50;68.70;;;;;;338846;29;1127;-60
2023/11/18 00:50:51;;;;;;;19.85;16.88;;;15.50;68.70;;;;;;338972;29;953;-59
2023/11/18 00:51:02;;;;;;;18.83;16.33;;;15.50;68.80;;;;;;338887;29;1247;-58
2023/11/18 00:51:13;;;;;;;18.83;16.25;;;15.50;68.80;;;;;;338758;29;2033;-60
2023/11/18 00:51:24;;;;;;;19.75;16.05;;;15.50;68.80;;;;;;338874;29;1056;-59
2023/11/18 00:51:36;;;;;;;20.05;16.20;;;15.50;68.90;;;;;;338742;29;996;-59
2023/11/18 00:51:47;;;;;;;18.60;15.73;;;15.50;68.90;;;;;;338682;29;1102;-59
2023/11/18 00:51:58;;;;;;;17.35;15.50;;;15.50;68.90;;;;;;338700;29;1076;-59
2023/11/18 00:52:09;;;;;;;17.35;15.48;;;15.50;68.90;;;;;;338919;29;947;-59
2023/11/18 00:52:19;;;;;;;18.20;15.88;;;15.50;68.90;;;;;;338878;29;978;-58
2023/11/18 00:52:30;;;;;;;18.87;16.00;;;15.50;68.90;;;;;;338880;29;965;-58
2023/11/18 00:52:41;;;;;;;19.33;15.88;;;15.50;68.90;;;;;;338939;29;866;-58
2023/11/18 00:52:52;;;;;;;18.85;15.77;;;15.50;68.90;;;;;;338695;29;1113;-59
2023/11/18 00:53:03;;;;;;;17.92;15.32;;;15.50;68.90;;;;;;338857;29;827;-59
2023/11/18 00:53:13;;;;;;;17.48;15.48;;;15.50;68.90;;;;;;338816;29;1005;-59
2023/11/18 00:53:24;;;;;;;17.70;15.52;;;15.50;68.80;;;;;;338765;29;913;-58
2023/11/18 00:53:35;;;;;;;18.47;16.10;;;15.50;68.90;;;;;;338802;29;1350;-58
2023/11/18 00:53:45;;;;;;;19.48;16.85;;;15.50;68.90;;;;;;338833;29;900;-58
2023/11/18 00:53:56;;;;;;;19.52;17.10;;;15.40;68.90;;;;;;338733;29;953;-58
2023/11/18 00:54:07;;;;;;;18.20;16.02;;;15.40;68.80;;;;;;338780;29;1020;-59
2023/11/18 00:54:18;;;;;;;18.02;15.38;;;15.40;68.80;;;;;;338765;29;1330;-58
2023/11/18 00:54:29;;;;;;;19.10;15.68;;;15.40;68.80;;;;;;338719;29;1232;-59
2023/11/18 00:54:40;;;;;;;19.97;16.03;;;15.50;68.80;;;;;;338815;29;1044;-58
2023/11/18 00:54:50;;;;;;;19.30;16.47;;;15.50;68.80;;;;;;338865;29;1076;-59
2023/11/18 00:55:01;;;;;;;18.95;16.52;;;15.40;68.80;;;;;;338801;29;1080;-58
2023/11/18 00:55:12;;;;;;;18.83;16.60;;;15.40;68.90;;;;;;338905;29;1219;-58
2023/11/18 00:55:22;;;;;;;18.67;16.23;;;15.50;68.80;;;;;;338917;29;830;-59
2023/11/18 00:55:33;;;;;;;18.48;16.33;;;15.50;68.80;;;;;;338893;29;1128;-57
2023/11/18 00:55:44;;;;;;;20.23;16.77;;;15.50;68.80;;;;;;338861;29;1825;-58
2023/11/18 00:55:54;;;;;;;20.15;16.55;;;15.50;68.80;;;;;;338889;29;977;-59
2023/11/18 00:56:08;;;;;;;19.43;15.97;;;15.50;68.80;;;;;;338809;29;1036;-59
2023/11/18 00:56:18;;;;;;;18.15;15.38;;;15.40;68.70;;;;;;338931;29;937;-59
2023/11/18 00:56:29;;;;;;;17.83;15.17;;;15.40;68.70;;;;;;338851;29;1013;-60
2023/11/18 00:56:40;;;;;;;19.02;15.88;;;15.40;68.70;;;;;;338750;29;1222;-60
2023/11/18 00:56:50;;;;;;;21.38;16.05;;;15.50;68.70;;;;;;338918;29;961;-59
2023/11/18 00:57:01;;;;;;;20.83;16.13;;;15.40;68.70;;;;;;338848;29;1143;-58
2023/11/18 00:57:12;;;;;;;20.03;15.60;;;15.40;68.70;;;;;;338789;29;1104;-59
2023/11/18 00:57:22;;;;;;;17.02;15.20;;;15.50;68.70;;;;;;338909;29;1088;-58
2023/11/18 00:57:33;;;;;;;16.88;15.00;;;15.40;68.70;;;;;;338859;29;1084;-59
2023/11/18 00:57:45;;;;;;;16.77;14.98;;;15.40;68.70;;;;;;338750;29;1413;-59
2023/11/18 00:57:56;;;;;;;19.20;15.23;;;15.50;68.80;;;;;;338940;29;890;-59
2023/11/18 00:58:06;;;;;;;20.02;15.30;;;15.40;68.80;;;;;;338852;29;1021;-59